createdAt,value
2022-08-29T00:01:05.486Z,7.90
2022-08-29T00:03:33.541Z,7.60
2022-08-29T00:06:00.615Z,7.97
2022-08-29T00:08:30.650Z,7.88
2022-08-29T00:10:57.517Z,7.82
2022-08-29T00:13:30.120Z,7.75
2022-08-29T00:15:56.960Z,8.27
2022-08-29T00:18:23.771Z,7.80
2022-08-29T00:20:53.524Z,8.80
2022-08-29T00:23:26.301Z,8.35
2022-08-29T00:25:53.244Z,7.80
2022-08-29T00:28:22.134Z,8.57
2022-08-29T00:30:49.175Z,8.80
2022-08-29T00:33:19.154Z,8.70
2022-08-29T00:35:49.347Z,9.48
2022-08-29T00:38:20.415Z,9.20
2022-08-29T00:40:51.329Z,8.23
2022-08-29T00:43:20.528Z,7.82
2022-08-29T00:46:03.457Z,8.38
2022-08-29T00:48:33.872Z,7.93
2022-08-29T00:51:04.400Z,7.80
2022-08-29T00:53:37.346Z,8.85
2022-08-29T00:58:50.338Z,7.68
2022-08-29T01:01:24.491Z,8.48
2022-08-29T01:03:54.453Z,8.55
2022-08-29T01:06:24.422Z,9.13
2022-08-29T01:08:57.586Z,8.70
2022-08-29T01:11:43.672Z,9.00
2022-08-29T01:14:11.695Z,7.85
2022-08-29T01:16:41.201Z,8.63
2022-08-29T01:19:16.252Z,8.43
2022-08-29T01:22:18.550Z,8.88
2022-08-29T01:24:56.146Z,8.00
2022-08-29T01:27:25.444Z,8.93
2022-08-29T01:29:56.068Z,7.85
2022-08-29T01:32:28.538Z,7.90
2022-08-29T01:34:55.504Z,8.68
2022-08-29T01:37:27.878Z,8.30
2022-08-29T01:40:00.506Z,8.10
2022-08-29T01:42:33.427Z,7.85
2022-08-29T01:45:05.505Z,7.30
2022-08-29T01:47:37.960Z,7.60
2022-08-29T01:50:15.066Z,8.50
2022-08-29T01:52:45.407Z,7.40
2022-08-29T01:55:15.079Z,8.68
2022-08-29T01:57:44.691Z,9.27
2022-08-29T02:00:16.601Z,8.40
2022-08-29T02:02:46.716Z,7.55
2022-08-29T02:05:15.595Z,7.88
2022-08-29T02:07:44.914Z,8.38
2022-08-29T02:10:15.454Z,9.13
2022-08-29T02:12:47.774Z,8.10
2022-08-29T02:15:20.136Z,7.85
2022-08-29T02:17:48.453Z,7.55
2022-08-29T02:20:21.650Z,7.25
2022-08-29T02:22:53.525Z,7.50
2022-08-29T02:25:39.044Z,7.60
2022-08-29T02:28:13.843Z,8.65
2022-08-29T02:30:44.754Z,7.75
2022-08-29T02:33:13.628Z,8.13
2022-08-29T02:35:49.473Z,8.55
2022-08-29T02:38:17.022Z,8.30
2022-08-29T02:40:44.095Z,7.85
2022-08-29T02:43:15.496Z,7.68
2022-08-29T02:45:44.907Z,7.85
2022-08-29T02:48:12.273Z,7.85
2022-08-29T02:50:48.015Z,7.90
2022-08-29T02:53:21.011Z,7.20
2022-08-29T02:58:21.184Z,7.63
2022-08-29T03:00:51.114Z,7.32
2022-08-29T03:03:19.059Z,7.03
2022-08-29T03:05:48.923Z,7.95
2022-08-29T03:08:25.051Z,7.03
2022-08-29T03:10:55.883Z,7.18
2022-08-29T03:13:24.587Z,6.95
2022-08-29T03:15:51.520Z,6.82
2022-08-29T03:18:22.559Z,6.50
2022-08-29T03:20:52.524Z,6.90
2022-08-29T03:23:20.133Z,6.50
2022-08-29T03:25:46.970Z,7.20
2022-08-29T03:28:13.903Z,6.13
2022-08-29T03:30:40.812Z,5.90
2022-08-29T03:33:11.528Z,6.22
2022-08-29T03:35:38.703Z,6.43
2022-08-29T03:38:05.519Z,6.65
2022-08-29T03:40:32.575Z,6.35
2022-08-29T03:43:00.519Z,6.93
2022-08-29T03:45:27.291Z,7.05
2022-08-29T03:47:54.097Z,6.47
2022-08-29T03:50:21.419Z,6.57
2022-08-29T03:52:48.435Z,6.50
2022-08-29T03:55:16.053Z,6.97
2022-08-29T03:57:43.281Z,6.43
2022-08-29T04:00:12.305Z,6.78
2022-08-29T04:02:39.895Z,6.57
2022-08-29T04:05:10.084Z,7.30
2022-08-29T04:07:49.032Z,6.82
2022-08-29T04:10:37.532Z,6.60
2022-08-29T04:13:05.596Z,6.68
2022-08-29T04:15:33.451Z,7.38
2022-08-29T04:18:01.726Z,6.70
2022-08-29T04:20:30.929Z,7.10
2022-08-29T04:22:58.031Z,6.65
2022-08-29T04:25:25.570Z,6.28
2022-08-29T04:27:53.063Z,6.90
2022-08-29T04:30:21.143Z,7.15
2022-08-29T04:32:47.861Z,6.72
2022-08-29T04:35:14.686Z,6.43
2022-08-29T04:37:41.690Z,6.10
2022-08-29T04:40:09.894Z,6.03
2022-08-29T04:42:37.616Z,5.53
2022-08-29T04:45:06.277Z,6.20
2022-08-29T04:47:35.420Z,6.68
2022-08-29T04:50:02.203Z,5.03
2022-08-29T04:52:28.995Z,6.32
2022-08-29T04:54:56.256Z,6.38
2022-08-29T04:57:24.567Z,5.75
2022-08-29T04:59:55.495Z,5.95
2022-08-29T05:02:22.881Z,6.38
2022-08-29T05:04:52.914Z,5.28
2022-08-29T05:07:21.000Z,5.57
2022-08-29T05:09:55.547Z,5.38
2022-08-29T05:12:22.882Z,5.70
2022-08-29T05:14:49.707Z,5.28
2022-08-29T05:17:16.447Z,5.75
2022-08-29T05:19:45.278Z,5.95
2022-08-29T05:22:15.563Z,5.47
2022-08-29T05:24:42.768Z,6.78
2022-08-29T05:27:13.372Z,6.10
2022-08-29T05:29:44.375Z,6.13
2022-08-29T05:32:11.831Z,5.70
2022-08-29T05:34:38.909Z,6.05
2022-08-29T05:37:07.883Z,5.60
2022-08-29T05:39:34.945Z,5.20
2022-08-29T05:42:02.037Z,6.05
2022-08-29T05:44:32.922Z,5.97
2022-08-29T05:47:01.907Z,5.65
2022-08-29T05:49:28.673Z,5.53
2022-08-29T05:51:55.868Z,5.72
2022-08-29T05:54:23.266Z,5.78
2022-08-29T05:56:50.511Z,6.05
2022-08-29T05:59:18.478Z,5.07
2022-08-29T06:01:47.130Z,5.65
2022-08-29T06:04:13.928Z,5.78
2022-08-29T06:06:40.868Z,5.53
2022-08-29T06:09:07.798Z,5.57
2022-08-29T06:11:34.681Z,5.72
2022-08-29T06:14:02.131Z,5.78
2022-08-29T06:16:29.511Z,6.55
2022-08-29T06:18:56.577Z,6.63
2022-08-29T06:21:23.364Z,6.38
2022-08-29T06:23:50.142Z,5.93
2022-08-29T06:26:17.119Z,6.00
2022-08-29T06:28:45.975Z,6.00
2022-08-29T06:31:18.209Z,6.55
2022-08-29T06:33:45.001Z,6.35
2022-08-29T06:36:11.840Z,6.07
2022-08-29T06:38:38.886Z,5.70
2022-08-29T06:41:13.948Z,5.57
2022-08-29T06:43:40.893Z,4.93
2022-08-29T06:46:08.413Z,5.18
2022-08-29T06:48:35.454Z,4.53
2022-08-29T06:51:02.581Z,4.60
2022-08-29T06:53:31.988Z,5.47
2022-08-29T06:56:04.701Z,5.18
2022-08-29T07:00:59.133Z,4.55
2022-08-29T07:03:25.984Z,4.93
2022-08-29T07:05:53.701Z,4.70
2022-08-29T07:08:20.749Z,4.20
2022-08-29T07:10:47.504Z,5.18
2022-08-29T07:13:14.362Z,4.13
2022-08-29T07:15:41.270Z,4.72
2022-08-29T07:18:08.071Z,4.20
2022-08-29T07:20:34.851Z,5.00
2022-08-29T07:23:01.604Z,4.28
2022-08-29T07:25:28.375Z,3.78
2022-08-29T07:27:55.132Z,4.05
2022-08-29T07:30:22.014Z,3.95
2022-08-29T07:32:48.827Z,4.22
2022-08-29T07:35:19.846Z,4.35
2022-08-29T07:37:57.128Z,3.88
2022-08-29T07:40:24.059Z,4.50
2022-08-29T07:42:51.000Z,4.07
2022-08-29T07:45:18.187Z,4.22
2022-08-29T07:47:44.995Z,4.60
2022-08-29T07:50:12.506Z,4.45
2022-08-29T07:52:39.316Z,4.47
2022-08-29T07:55:06.736Z,4.25
2022-08-29T07:57:33.578Z,4.50
2022-08-29T08:00:06.659Z,4.32
2022-08-29T08:02:33.447Z,4.20
2022-08-29T08:05:00.288Z,4.53
2022-08-29T08:07:29.549Z,4.50
2022-08-29T08:09:56.557Z,4.10
2022-08-29T08:12:25.692Z,4.50
2022-08-29T08:14:52.581Z,3.97
2022-08-29T08:17:19.308Z,4.13
2022-08-29T08:19:46.027Z,3.97
2022-08-29T08:22:12.850Z,5.45
2022-08-29T08:24:39.663Z,4.07
2022-08-29T08:27:06.533Z,3.97
2022-08-29T08:29:33.305Z,4.22
2022-08-29T08:32:00.054Z,3.72
2022-08-29T08:34:27.045Z,4.45
2022-08-29T08:36:55.790Z,4.03
2022-08-29T08:39:22.681Z,3.72
2022-08-29T08:42:03.262Z,4.22
2022-08-29T08:44:51.492Z,3.45
2022-08-29T08:47:28.569Z,4.40
2022-08-29T08:49:59.457Z,4.05
2022-08-29T08:52:45.654Z,3.70
2022-08-29T08:55:36.994Z,3.65
2022-08-29T08:58:33.122Z,4.20
2022-08-29T09:01:47.330Z,4.18
2022-08-29T09:04:21.829Z,3.72
2022-08-29T09:07:27.591Z,3.75
2022-08-29T09:10:14.852Z,4.20
2022-08-29T09:12:51.684Z,3.58
2022-08-29T09:15:32.825Z,3.50
2022-08-29T09:18:05.857Z,3.90
2022-08-29T09:20:39.850Z,3.30
2022-08-29T09:23:25.697Z,3.55
2022-08-29T09:25:57.379Z,3.80
2022-08-29T09:28:30.793Z,3.33
2022-08-29T09:31:22.723Z,3.47
2022-08-29T09:33:56.562Z,3.40
2022-08-29T09:36:47.931Z,3.20
2022-08-29T09:39:32.891Z,3.08
2022-08-29T09:42:17.870Z,3.40
2022-08-29T09:44:55.604Z,3.00
2022-08-29T09:47:27.356Z,3.42
2022-08-29T09:50:33.145Z,3.23
2022-08-29T09:53:08.099Z,3.20
2022-08-29T09:55:50.563Z,3.05
2022-08-29T09:58:21.160Z,3.25
2022-08-29T10:01:06.434Z,3.63
2022-08-29T10:03:41.124Z,3.30
2022-08-29T10:06:08.256Z,3.42
2022-08-29T10:08:38.291Z,2.78
2022-08-29T10:11:23.696Z,3.38
2022-08-29T10:14:14.610Z,3.90
2022-08-29T10:16:53.408Z,3.17
2022-08-29T10:19:33.133Z,2.70
2022-08-29T10:22:50.122Z,3.25
2022-08-29T10:25:23.887Z,2.90
2022-08-29T10:28:11.125Z,3.50
2022-08-29T10:30:48.995Z,2.88
2022-08-29T10:33:24.777Z,2.78
2022-08-29T10:36:22.799Z,2.40
2022-08-29T10:39:19.219Z,2.50
2022-08-29T10:42:04.243Z,3.00
2022-08-29T10:44:39.340Z,2.25
2022-08-29T10:47:20.531Z,2.25
2022-08-29T10:49:50.437Z,2.70
2022-08-29T10:52:45.538Z,2.88
2022-08-29T10:55:38.971Z,2.30
2022-08-29T10:58:31.360Z,2.88
2022-08-29T11:01:08.491Z,2.70
2022-08-29T11:03:55.309Z,2.60
2022-08-29T11:06:25.300Z,2.80
2022-08-29T11:08:59.510Z,3.22
2022-08-29T11:11:32.989Z,2.65
2022-08-29T11:14:18.559Z,2.60
2022-08-29T11:16:51.067Z,2.53
2022-08-29T11:22:08.663Z,3.22
2022-08-29T11:24:47.188Z,2.40
2022-08-29T11:27:26.879Z,2.45
2022-08-29T11:30:06.665Z,2.88
2022-08-29T11:32:39.409Z,2.60
2022-08-29T11:35:24.338Z,2.17
2022-08-29T11:38:31.880Z,2.72
2022-08-29T11:41:26.986Z,2.58
2022-08-29T11:44:00.282Z,2.22
2022-08-29T11:49:30.303Z,2.15
2022-08-29T11:52:02.829Z,2.20
2022-08-29T11:54:45.707Z,2.50
2022-08-29T11:59:57.262Z,2.08
2022-08-29T12:02:33.365Z,2.20
2022-08-29T12:05:08.769Z,2.60
2022-08-29T12:08:06.170Z,2.28
2022-08-29T12:10:58.908Z,2.60
2022-08-29T12:13:50.834Z,2.42
2022-08-29T12:16:47.707Z,2.15
2022-08-29T12:19:56.202Z,2.72
2022-08-29T12:22:53.569Z,2.45
2022-08-29T12:26:21.420Z,2.53
2022-08-29T12:28:49.384Z,2.08
2022-08-29T12:31:36.149Z,2.08
2022-08-29T12:34:23.500Z,2.47
2022-08-29T12:37:15.487Z,2.58
2022-08-29T12:40:00.220Z,2.30
2022-08-29T12:42:44.244Z,2.28
2022-08-29T12:45:19.792Z,2.72
2022-08-29T12:47:51.448Z,2.70
2022-08-29T12:50:29.182Z,2.22
2022-08-29T12:53:18.191Z,2.60
2022-08-29T12:55:54.716Z,2.45
2022-08-29T12:58:36.769Z,2.38
2022-08-29T13:01:07.519Z,2.80
2022-08-29T13:03:39.808Z,2.42
2022-08-29T13:06:12.982Z,2.42
2022-08-29T13:08:42.849Z,2.75
2022-08-29T13:11:13.898Z,2.55
2022-08-29T13:13:43.534Z,2.65
2022-08-29T13:16:22.318Z,2.40
2022-08-29T13:19:09.922Z,2.90
2022-08-29T13:21:43.351Z,2.53
2022-08-29T13:27:04.301Z,2.58
2022-08-29T13:29:38.431Z,2.92
2022-08-29T13:32:27.740Z,2.58
2022-08-29T13:35:19.876Z,2.60
2022-08-29T13:38:08.775Z,2.58
2022-08-29T13:40:42.526Z,2.17
2022-08-29T13:43:36.554Z,2.72
2022-08-29T13:46:18.224Z,2.38
2022-08-29T13:48:50.821Z,2.10
2022-08-29T13:51:23.199Z,2.40
2022-08-29T13:53:52.400Z,2.80
2022-08-29T13:56:34.533Z,2.50
2022-08-29T13:59:10.010Z,2.50
2022-08-29T14:04:40.819Z,2.22
2022-08-29T14:07:32.625Z,2.47
2022-08-29T14:10:00.773Z,2.50
2022-08-29T14:12:32.931Z,2.42
2022-08-29T14:17:37.396Z,2.60
2022-08-29T14:20:04.843Z,2.80
2022-08-29T14:22:35.904Z,2.28
2022-08-29T14:25:12.926Z,2.67
2022-08-29T14:27:43.612Z,2.70
2022-08-29T14:30:11.710Z,2.33
2022-08-29T14:32:40.597Z,2.22
2022-08-29T14:35:10.891Z,2.60
2022-08-29T14:37:58.691Z,2.30
2022-08-29T14:40:30.447Z,2.00
2022-08-29T14:42:58.129Z,2.40
2022-08-29T14:45:27.612Z,2.80
2022-08-29T14:47:56.977Z,2.80
2022-08-29T14:50:31.227Z,2.72
2022-08-29T14:53:02.220Z,2.60
2022-08-29T14:55:29.077Z,2.40
2022-08-29T14:57:55.956Z,2.72
2022-08-29T15:00:25.668Z,2.25
2022-08-29T15:02:54.429Z,2.47
2022-08-29T15:05:23.402Z,2.22
2022-08-29T15:08:01.811Z,2.65
2022-08-29T15:10:35.786Z,2.35
2022-08-29T15:13:03.043Z,2.30
2022-08-29T15:15:32.769Z,2.30
2022-08-29T15:18:03.642Z,2.30
2022-08-29T15:20:36.755Z,2.22
2022-08-29T15:23:04.475Z,2.60
2022-08-29T15:25:35.119Z,2.95
2022-08-29T15:28:08.347Z,3.08
2022-08-29T15:30:38.173Z,3.38
2022-08-29T15:33:10.642Z,2.67
2022-08-29T15:35:41.147Z,2.63
2022-08-29T15:38:10.933Z,2.60
2022-08-29T15:40:40.827Z,2.47
2022-08-29T15:43:14.827Z,2.63
2022-08-29T15:45:47.161Z,2.40
2022-08-29T15:48:14.358Z,3.45
2022-08-29T15:50:42.306Z,3.30
2022-08-29T15:53:09.367Z,3.00
2022-08-29T15:55:44.593Z,2.70
2022-08-29T15:58:17.243Z,3.13
2022-08-29T16:00:46.061Z,2.78
2022-08-29T16:03:18.108Z,3.08
2022-08-29T16:05:48.089Z,2.72
2022-08-29T16:08:20.495Z,2.80
2022-08-29T16:10:57.180Z,2.67
2022-08-29T16:13:26.764Z,3.30
2022-08-29T16:15:56.329Z,2.55
2022-08-29T16:18:25.668Z,2.35
2022-08-29T16:21:00.450Z,2.78
2022-08-29T16:23:29.972Z,2.90
2022-08-29T16:25:59.285Z,2.60
2022-08-29T16:28:29.406Z,2.70
2022-08-29T16:31:03.189Z,2.45
2022-08-29T16:33:33.104Z,3.22
2022-08-29T16:36:09.876Z,3.20
2022-08-29T16:38:36.931Z,2.83
2022-08-29T16:41:11.641Z,3.15
2022-08-29T16:43:38.836Z,2.88
2022-08-29T16:46:08.685Z,3.15
2022-08-29T16:48:40.543Z,2.80
2022-08-29T16:51:12.827Z,2.88
2022-08-29T16:53:48.980Z,2.97
2022-08-29T16:56:16.794Z,2.70
2022-08-29T16:59:00.255Z,2.80
2022-08-29T17:01:39.427Z,3.38
2022-08-29T17:04:08.082Z,2.80
2022-08-29T17:06:35.061Z,3.20
2022-08-29T17:09:08.537Z,2.90
2022-08-29T17:11:36.812Z,2.85
2022-08-29T17:14:04.075Z,3.20
2022-08-29T17:16:31.476Z,3.13
2022-08-29T17:19:02.427Z,3.53
2022-08-29T17:21:29.417Z,3.17
2022-08-29T17:23:58.569Z,3.00
2022-08-29T17:26:26.579Z,3.42
2022-08-29T17:28:56.052Z,3.10
2022-08-29T17:31:26.497Z,3.13
2022-08-29T17:33:57.031Z,3.38
2022-08-29T17:36:24.336Z,3.60
2022-08-29T17:38:58.951Z,3.58
2022-08-29T17:41:33.423Z,3.53
2022-08-29T17:44:04.327Z,3.45
2022-08-29T17:46:33.723Z,4.00
2022-08-29T17:49:08.033Z,3.72
2022-08-29T17:51:42.444Z,3.92
2022-08-29T17:54:14.803Z,3.55
2022-08-29T17:57:03.736Z,4.28
2022-08-29T17:59:32.828Z,4.03
2022-08-29T18:02:01.687Z,3.55
2022-08-29T18:04:34.671Z,4.15
2022-08-29T18:09:33.035Z,4.93
2022-08-29T18:11:59.979Z,4.35
2022-08-29T18:14:26.882Z,4.50
2022-08-29T18:16:56.528Z,5.15
2022-08-29T18:19:34.386Z,5.22
2022-08-29T18:22:06.872Z,5.47
2022-08-29T18:24:36.944Z,5.47
2022-08-29T18:27:08.185Z,5.13
2022-08-29T18:29:36.932Z,6.93
2022-08-29T18:32:06.814Z,5.85
2022-08-29T18:34:36.154Z,5.78
2022-08-29T18:37:08.772Z,5.85
2022-08-29T18:39:45.048Z,6.43
2022-08-29T18:42:30.422Z,5.40
2022-08-29T18:45:04.928Z,5.65
2022-08-29T18:50:24.908Z,6.50
2022-08-29T18:53:01.396Z,6.50
2022-08-29T18:55:29.625Z,6.50
2022-08-29T18:57:59.200Z,6.13
2022-08-29T19:00:26.170Z,5.80
2022-08-29T19:03:00.737Z,5.95
2022-08-29T19:05:36.257Z,6.15
2022-08-29T19:08:05.910Z,6.88
2022-08-29T19:10:39.774Z,6.25
2022-08-29T19:13:08.443Z,6.38
2022-08-29T19:15:46.360Z,5.93
2022-08-29T19:18:16.348Z,6.25
2022-08-29T19:21:08.161Z,6.28
2022-08-29T19:23:51.971Z,5.90
2022-08-29T19:26:33.863Z,5.97
2022-08-29T19:29:09.637Z,6.65
2022-08-29T19:31:41.035Z,6.78
2022-08-29T19:34:07.951Z,6.22
2022-08-29T19:36:42.046Z,7.20
2022-08-29T19:39:30.842Z,5.97
2022-08-29T19:42:08.978Z,5.95
2022-08-29T19:44:48.102Z,6.07
2022-08-29T19:47:22.096Z,5.47
2022-08-29T19:49:49.399Z,6.25
2022-08-29T19:52:19.282Z,6.10
2022-08-29T19:54:46.445Z,5.70
2022-08-29T19:57:14.665Z,6.03
2022-08-29T19:59:48.883Z,6.28
2022-08-29T20:02:18.239Z,6.00
2022-08-29T20:04:51.191Z,6.22
2022-08-29T20:09:55.733Z,6.38
2022-08-29T20:12:26.766Z,6.85
2022-08-29T20:14:53.745Z,6.25
2022-08-29T20:17:27.646Z,6.25
2022-08-29T20:20:03.124Z,5.55
2022-08-29T20:22:35.766Z,5.65
2022-08-29T20:25:08.156Z,5.60
2022-08-29T20:27:38.482Z,5.47
2022-08-29T20:30:10.073Z,5.28
2022-08-29T20:32:41.372Z,6.10
2022-08-29T20:35:15.561Z,5.47
2022-08-29T20:37:42.639Z,6.18
2022-08-29T20:40:13.546Z,6.00
2022-08-29T20:42:40.384Z,5.30
2022-08-29T20:45:08.263Z,5.00
2022-08-29T20:47:35.059Z,5.45
2022-08-29T20:50:02.018Z,5.80
2022-08-29T20:52:29.030Z,6.22
2022-08-29T20:54:56.020Z,5.70
2022-08-29T20:57:23.011Z,5.22
2022-08-29T20:59:49.894Z,5.80
2022-08-29T21:02:16.764Z,5.65
2022-08-29T21:05:02.124Z,4.90
2022-08-29T21:07:29.448Z,5.20
2022-08-29T21:09:56.338Z,5.88
2022-08-29T21:12:27.474Z,4.90
2022-08-29T21:14:54.518Z,5.15
2022-08-29T21:17:21.297Z,5.00
2022-08-29T21:19:48.060Z,4.85
2022-08-29T21:22:15.152Z,4.80
2022-08-29T21:24:42.293Z,5.72
2022-08-29T21:27:09.364Z,5.82
2022-08-29T21:29:36.184Z,6.10
2022-08-29T21:32:03.228Z,5.97
2022-08-29T21:34:30.097Z,5.68
2022-08-29T21:36:57.187Z,4.90
2022-08-29T21:39:29.024Z,4.88
2022-08-29T21:41:56.249Z,6.53
2022-08-29T21:44:23.038Z,5.70
2022-08-29T21:46:49.930Z,4.90
2022-08-29T21:49:18.708Z,5.38
2022-08-29T21:51:48.290Z,4.93
2022-08-29T21:54:15.736Z,4.80
2022-08-29T21:56:43.033Z,4.75
2022-08-29T21:59:10.287Z,6.00
2022-08-29T22:01:40.009Z,4.90
2022-08-29T22:04:09.880Z,5.60
2022-08-29T22:06:39.727Z,4.88
2022-08-29T22:09:08.912Z,5.03
2022-08-29T22:11:37.435Z,6.30
2022-08-29T22:14:05.542Z,5.57
2022-08-29T22:16:32.453Z,5.68
2022-08-29T22:19:01.762Z,5.35
2022-08-29T22:21:31.090Z,4.20
2022-08-29T22:23:58.045Z,4.63
2022-08-29T22:26:25.044Z,4.75
2022-08-29T22:28:51.853Z,4.80
2022-08-29T22:31:19.081Z,4.25
2022-08-29T22:33:45.911Z,5.32
2022-08-29T22:36:13.134Z,4.70
2022-08-29T22:38:41.272Z,5.15
2022-08-29T22:41:12.881Z,4.45
2022-08-29T22:43:39.747Z,5.68
2022-08-29T22:46:11.497Z,5.57
2022-08-29T22:48:39.019Z,4.38
2022-08-29T22:51:10.210Z,6.22
2022-08-29T22:53:36.964Z,5.78
2022-08-29T22:56:05.142Z,4.72
2022-08-29T22:58:32.032Z,4.63
2022-08-29T23:00:58.827Z,5.32
2022-08-29T23:03:25.594Z,4.88
2022-08-29T23:05:52.337Z,4.78
2022-08-29T23:08:20.988Z,4.57
2022-08-29T23:10:49.096Z,4.95
2022-08-29T23:13:16.418Z,5.60
2022-08-29T23:15:43.398Z,4.47
2022-08-29T23:18:10.173Z,5.43
2022-08-29T23:20:36.935Z,5.30
2022-08-29T23:23:03.729Z,4.75
2022-08-29T23:25:35.470Z,4.63
2022-08-29T23:28:02.690Z,4.95
2022-08-29T23:30:30.896Z,5.20
2022-08-29T23:32:59.290Z,5.43
2022-08-29T23:35:27.328Z,4.13
2022-08-29T23:37:54.470Z,5.05
2022-08-29T23:40:21.647Z,4.57
2022-08-29T23:42:48.843Z,4.97
2022-08-29T23:45:15.758Z,5.03
2022-08-29T23:47:42.684Z,4.70
2022-08-29T23:50:09.950Z,4.95
2022-08-29T23:52:36.716Z,4.93
2022-08-29T23:55:04.633Z,5.07
2022-08-29T23:57:31.457Z,4.78
